Darstellungsparameter: Aktuell verwendete Einstellungen:
Skalierung der Graphiken ... ?
xyx+y,   Skalierungsfaktor:      Skalierung: Modus: x, Faktor: 1
Darstellungszeitraum ... ?
Vom - - bis: - -   Zeitraum: 23.02.2003 - 15.04.2010
Min/Max/Avg-Anzeige ... ?
Zeige MMA aktuell
Zeige MMA Monat
Zeige MMA alles
Zeige --A aktuell
Zeige --A Monat
Zeige --A alles
Keine MMA-Anzeige
MMA:
Average (ber die Originaldaten)
MMA-Basis: 23.02.2003 - 15.04.2010
Quicknavigation für Darstellung... ?
Tage:      1T, 2T, 3T, 5T -1T -2T -3T -5T +1T +2T +3T +5T
Wochen: 1W, 2W, 3W -1W -2W -3W +1W +2W +3W
Monate: 1M, 3M, 6M -1M -3M -6M +1M +3M +6M
Jahre:    1J, 3J, 5J, 10J -1J -3J -5J -10J +1J +3J +5J +10J
Nutze für die Darstellung ... ?
Originaldaten oder ...
Mittelwerte Minima Maxima auf...
Stundenbasis Tagesbasis Wochenbasis
Monatsbasis Jahresbasis      Datenbasis: Mittelwerte auf Monatsbasis
Darstellen als:
Statistik (Auto) Statistik J:M      Darstellung:

Der gewünschte Datumsbereich war nicht gültig/verfügbar und wurde korrigiert....
Das angegebene Startdatum (16.04.2000 00:00:00) liegt vor dem ersten Datenbankeintrag.


Zur Graphik,    zurück zur Übersicht aller Sensoren.
 
Tabellarische Datenbersicht: ?
 
Sensor: Nr:Datum:Temp:Abs-Feuchte:Windchill:Wind:
Aussen-T/F 1 01-02-2003 00:00:00 4.48524 C 4.15 g/m*3 4.49 C 0 km/h
2 01-03-2003 00:00:00 8.4087 C 5.55 g/m*3 8.41 C 0 km/h
3 01-04-2003 00:00:00 10.74549 C 6.41 g/m*3 10.75 C 0 km/h
4 01-05-2003 00:00:00 16.29883 C 8.59 g/m*3 16.3 C 0 km/h
5 01-06-2003 00:00:00 22.52656 C 11.82 g/m*3 22.53 C 0 km/h
6 01-07-2003 00:00:00 21.39153 C 10.64 g/m*3 21.39 C 0 km/h
7 01-08-2003 00:00:00 23.30904 C 10.88 g/m*3 23.31 C 0 km/h
8 01-09-2003 00:00:00 15.90339 C 8.85 g/m*3 15.9 C 0 km/h
9 01-10-2003 00:00:00 7.93609 C 6.17 g/m*3 7.94 C 0 km/h
10 01-11-2003 00:00:00 7.9681 C 6.16 g/m*3 7.97 C 0 km/h
11 01-12-2003 00:00:00 2.95275 C 4.45 g/m*3 2.95 C 0 km/h
12 01-01-2004 00:00:00 2.36116 C 4.03 g/m*3 2.36 C 0 km/h
13 01-02-2004 00:00:00 4.69623 C 4.15 g/m*3 4.7 C 0 km/h
14 01-03-2004 00:00:00 6.34737 C 4.57 g/m*3 6.35 C 0 km/h
15 01-04-2004 00:00:00 11.88043 C 6.41 g/m*3 11.88 C 0 km/h
16 01-05-2004 00:00:00 14.08777 C 7.47 g/m*3 14.09 C 0 km/h
17 01-06-2004 00:00:00 17.60676 C 9.65 g/m*3 17.61 C 0 km/h
18 01-07-2004 00:00:00 19.01517 C 10.76 g/m*3 19.02 C 0 km/h
19 01-08-2004 00:00:00 20.72245 C 11.79 g/m*3 20.72 C 0 km/h
20 01-09-2004 00:00:00 16.29744 C 9.24 g/m*3 16.3 C 0 km/h
21 01-10-2004 00:00:00 11.7712 C 8.03 g/m*3 11.77 C 0 km/h
22 01-11-2004 00:00:00 5.60764 C 5.76 g/m*3 5.61 C 0 km/h
23 01-12-2004 00:00:00 1.5301 C 4.28 g/m*3 1.53 C 0 km/h
24 01-01-2005 00:00:00 3.80632 C 4.4 g/m*3 3.81 C 0 km/h
25 01-02-2005 00:00:00 1.48875 C 3.86 g/m*3 1.49 C 0 km/h
Sensor: Nr:Datum:Temp:Abs-Feuchte:Windchill:Wind:
Aussen-T/F 26 01-03-2005 00:00:00 7.78453 C 5.15 g/m*3 7.78 C 0 km/h
27 01-04-2005 00:00:00 11.75573 C 6.77 g/m*3 11.76 C 0 km/h
28 01-05-2005 00:00:00 15.05924 C 8 g/m*3 15.06 C 0 km/h
29 01-06-2005 00:00:00 20.27763 C 9.05 g/m*3 20.28 C 0 km/h
30 01-07-2005 00:00:00 20.6784 C 10.8 g/m*3 20.68 C 0 km/h
31 01-08-2005 00:00:00 18.03605 C 10.06 g/m*3 18.04 C 0 km/h
32 01-09-2005 00:00:00 16.93889 C 9.55 g/m*3 16.94 C 0 km/h
33 01-10-2005 00:00:00 12.95821 C 8.74 g/m*3 12.96 C 0 km/h
34 01-11-2005 00:00:00 6.12486 C 5.81 g/m*3 6.12 C 0 km/h
35 01-12-2005 00:00:00 2.39762 C 4.53 g/m*3 2.4 C 0 km/h
36 01-01-2006 00:00:00 -0.84748 C 3.5 g/m*3 -0.85 C 0 km/h
37 01-02-2006 00:00:00 1.83319 C 3.89 g/m*3 1.83 C 0 km/h
38 01-03-2006 00:00:00 4.37314 C 4.16 g/m*3 4.37 C 0 km/h
39 01-04-2006 00:00:00 10.36633 C 5.74 g/m*3 10.37 C 0 km/h
40 01-05-2006 00:00:00 15.72132 C 8.05 g/m*3 15.72 C 0 km/h
41 01-06-2006 00:00:00 20.00486 C 9.31 g/m*3 20 C 0 km/h
42 01-07-2006 00:00:00 25.32282 C 11.24 g/m*3 25.32 C 0 km/h
43 01-08-2006 00:00:00 17.15743 C 10.23 g/m*3 17.16 C 0 km/h
44 01-09-2006 00:00:00 19.27974 C 10.86 g/m*3 19.28 C 0 km/h
45 01-10-2006 00:00:00 14.33561 C 9.28 g/m*3 14.34 C 0 km/h
46 01-11-2006 00:00:00 8.66421 C 6.72 g/m*3 8.66 C 0 km/h
47 01-12-2006 00:00:00 5.1238 C 5.12 g/m*3 5.12 C 0 km/h
48 01-01-2007 00:00:00 6.50769 C 4.66 g/m*3 6.51 C 0 km/h
49 01-02-2007 00:00:00 6.19771 C 4.92 g/m*3 6.2 C 0 km/h
50 01-03-2007 00:00:00 8.6729 C 5.16 g/m*3 8.67 C 0 km/h
Sensor: Nr:Datum:Temp:Abs-Feuchte:Windchill:Wind:
Aussen-T/F 51 01-04-2007 00:00:00 13.64719 C 5.73 g/m*3 13.65 C 0 km/h
52 01-05-2007 00:00:00 17.03196 C 8.43 g/m*3 17.03 C 0 km/h
53 01-06-2007 00:00:00 19.58027 C 10.43 g/m*3 19.58 C 0 km/h
54 01-07-2007 00:00:00 19.45619 C 9.59 g/m*3 19.46 C 0 km/h
55 01-08-2007 00:00:00 18.81883 C 10.16 g/m*3 18.82 C 0 km/h
56 01-09-2007 00:00:00 14.45221 C 8.63 g/m*3 14.45 C 0 km/h
57 01-10-2007 00:00:00 12.08977 C 7.86 g/m*3 12.09 C 0 km/h
58 01-11-2007 00:00:00 5.44725 C 5.47 g/m*3 5.45 C 0 km/h
59 01-12-2007 00:00:00 2.48122 C 4.34 g/m*3 2.48 C 0 km/h
60 01-01-2008 00:00:00 5.35122 C 4.88 g/m*3 5.35 C 0 km/h
61 01-02-2008 00:00:00 4.38505 C 4.28 g/m*3 4.39 C 0 km/h
62 01-03-2008 00:00:00 6.34296 C 4.29 g/m*3 6.34 C 0 km/h
63 01-04-2008 00:00:00 9.64593 C 5.99 g/m*3 9.65 C 0 km/h
64 01-05-2008 00:00:00 18.62709 C 7.87 g/m*3 18.63 C 0 km/h
65 01-06-2008 00:00:00 20.05406 C 9.43 g/m*3 20.05 C 0 km/h
66 01-07-2008 00:00:00 20.20426 C 9.85 g/m*3 20.2 C 0 km/h
67 01-08-2008 00:00:00 19.95194 C 9.85 g/m*3 19.95 C 0 km/h
68 01-09-2008 00:00:00 13.56618 C 8.08 g/m*3 13.57 C 0 km/h
69 01-10-2008 00:00:00 11.42875 C 7.76 g/m*3 11.43 C 0 km/h
70 01-11-2008 00:00:00 6.07023 C 5.76 g/m*3 6.07 C 0 km/h
71 01-12-2008 00:00:00 1.52941 C 4.47 g/m*3 1.53 C 0 km/h
72 01-01-2009 00:00:00 -1.56764 C 3.21 g/m*3 -1.57 C 0 km/h
73 01-02-2009 00:00:00 3.01574 C 4.13 g/m*3 3.02 C 0 km/h
74 01-03-2009 00:00:00 6.41904 C 4.69 g/m*3 6.42 C 0 km/h
75 01-04-2009 00:00:00 14.62991 C 7.17 g/m*3 14.63 C 0 km/h
Sensor: Nr:Datum:Temp:Abs-Feuchte:Windchill:Wind:
Aussen-T/F 76 01-05-2009 00:00:00 16.6395 C 8.17 g/m*3 16.64 C 0 km/h
77 01-06-2009 00:00:00 18.12883 C 8.92 g/m*3 18.13 C 0 km/h
78 01-07-2009 00:00:00 20.92787 C 10.24 g/m*3 20.93 C 0 km/h
79 01-08-2009 00:00:00 21.42827 C 10.01 g/m*3 21.43 C 0 km/h
80 01-09-2009 00:00:00 16.89747 C 9.42 g/m*3 16.9 C 0 km/h
81 01-10-2009 00:00:00 10.34649 C 7.08 g/m*3 10.35 C 0 km/h
82 01-11-2009 00:00:00 9.28793 C 6.76 g/m*3 9.29 C 0 km/h
83 01-12-2009 00:00:00 2.38203 C 4.43 g/m*3 2.38 C 0 km/h
84 01-01-2010 00:00:00 -1.14228 C 3.51 g/m*3 -1.14 C 0 km/h
85 01-02-2010 00:00:00 3.48183 C 4.33 g/m*3 3.48 C 0 km/h
86 01-03-2010 00:00:00 6.48443 C 4.45 g/m*3 6.48 C 0 km/h
87 01-04-2010 00:00:00 10.01634 C 5.06 g/m*3 10.02 C 0 km/h

Maximal/Minimal-Werte vom 23.02.2003 - 15.04.2010

Sensor Min Max Avg
Temp
(Aussen-T/F)
-16.4 °C
20-12-2009  01:30:01
36.2 °C
08-08-2003  16:43:01
11.55 °C
Abs-Feuchte
(Aussen-T/F)
3.21 g/m*3
01-01-2009  00:00:00
11.82 g/m*3
01-06-2003  00:00:00
6.98 g/m*3
Windchill
(Aussen-T/F)
-1.57 C
01-01-2009  00:00:00
25.32 C
01-07-2006  00:00:00
11.27 C

Die Daten stammen von einer Davis Vantage Pro 2 Wetter-Station und werden unter Linux mit der Software wview2wettercgi und aufbereitet. Alle Angaben erfolgen ohne Gewähr für ihre Vollständigkeit oder Richtigkeit.
Kontakt: Rainer Krienke krienke@uni-koblenz.de . Meine Webseiten an der Uni Koblenz oder privat.
Version: $Revision: 0.78 $